Time;durP1;ratioP1;P1;durP2;ratioP2;P2;SDS_P1;SDS_P2;PMS_P1;PMS_P2;Temp;Humidity;BMP_temperature;BMP_pressure;BME280_temperature;BME280_humidity;BME280_pressure;Samples;Min_cycle;Max_cycle;Signal;HPM_P1;HPM_P2
2021/12/12 00:00:02;;;;;;;18.90;11.00;;;;;;;7.79;83.01;101194.51;1666859;84;26464;-60
2021/12/12 00:02:45;;;;;;;21.07;11.18;;;;;;;7.83;82.80;101197.36;1647082;84;25833;-60
2021/12/12 00:05:08;;;;;;;20.57;12.18;;;;;;;7.83;82.80;101179.95;1633132;86;28088;-60
2021/12/12 00:07:34;;;;;;;21.62;11.40;;;;;;;7.81;82.67;101178.32;1617075;86;25795;-60
2021/12/12 00:10:07;;;;;;;19.90;11.20;;;;;;;7.79;82.89;101186.47;1623410;86;25789;-61
2021/12/12 00:12:39;;;;;;;18.05;11.57;;;;;;;7.76;82.95;101183.16;1632501;84;25830;-60
2021/12/12 00:15:11;;;;;;;20.37;11.88;;;;;;;7.73;82.96;101184.23;1661567;84;25728;-61
2021/12/12 00:17:39;;;;;;;17.70;11.68;;;;;;;7.71;83.25;101186.16;1661746;84;28124;-61
2021/12/12 00:20:11;;;;;;;20.57;11.78;;;;;;;7.72;83.58;101173.61;1660449;84;25724;-60
2021/12/12 00:22:39;;;;;;;18.12;11.03;;;;;;;7.69;83.68;101178.70;1663763;84;25926;-61
2021/12/12 00:25:08;;;;;;;19.48;11.85;;;;;;;7.65;83.49;101170.03;1662977;84;25535;-61
2021/12/12 00:27:35;;;;;;;18.07;11.55;;;;;;;7.66;83.88;101166.39;1661048;85;25874;-60
2021/12/12 00:30:05;;;;;;;17.48;11.22;;;;;;;7.68;83.80;101171.17;1665284;84;29629;-60
2021/12/12 00:32:36;;;;;;;16.35;11.08;;;;;;;7.69;83.84;101166.66;1671335;84;25853;-60
2021/12/12 00:35:08;;;;;;;23.67;12.70;;;;;;;7.68;83.79;101166.28;1675966;84;25759;-60
2021/12/12 00:37:36;;;;;;;21.87;11.78;;;;;;;7.70;83.90;101162.17;1665324;84;25898;-60
2021/12/12 00:40:17;;;;;;;18.52;11.30;;;;;;;7.72;83.81;101158.42;1662080;84;25800;-60
2021/12/12 00:42:46;;;;;;;16.75;10.82;;;;;;;7.75;83.53;101154.66;1663912;84;27500;-60
2021/12/12 00:45:15;;;;;;;18.60;10.28;;;;;;;7.79;83.36;101158.34;1664620;84;25853;-60
2021/12/12 00:47:46;;;;;;;16.05;10.25;;;;;;;7.83;83.44;101154.50;1664162;84;25781;-60
2021/12/12 00:50:18;;;;;;;14.10;9.35;;;;;;;7.90;83.57;101148.20;1663868;84;25781;-60
2021/12/12 00:52:48;;;;;;;20.08;11.05;;;;;;;7.92;83.38;101142.26;1666991;84;25979;-60
2021/12/12 00:55:16;;;;;;;17.10;10.58;;;;;;;7.96;83.54;101138.87;1659889;85;27385;-60
2021/12/12 00:57:50;;;;;;;18.17;10.08;;;;;;;7.98;83.33;101134.27;1665854;84;25653;-60
2021/12/12 01:00:14;;;;;;;21.07;9.60;;;;;;;8.01;83.37;101143.44;1661295;83;25728;-59
2021/12/12 01:02:41;;;;;;;17.62;9.73;;;;;;;8.03;83.17;101141.98;1666158;84;25779;-59
2021/12/12 01:05:12;;;;;;;14.83;8.75;;;;;;;8.05;83.11;101138.21;1689520;84;25938;-59
2021/12/12 01:07:43;;;;;;;16.97;9.50;;;;;;;8.04;83.32;101141.02;1686866;83;28168;-59
2021/12/12 01:10:21;;;;;;;14.10;9.28;;;;;;;8.02;83.22;101140.26;1668286;84;25791;-59
2021/12/12 01:12:49;;;;;;;14.53;9.50;;;;;;;8.03;83.46;101136.62;1672400;84;25795;-59
2021/12/12 01:15:21;;;;;;;16.37;9.15;;;;;;;8.01;83.23;101136.73;1664966;84;25864;-59
2021/12/12 01:17:53;;;;;;;14.83;9.18;;;;;;;8.01;83.75;101136.73;1659485;84;25773;-59
2021/12/12 01:20:40;;;;;;;18.87;9.40;;;;;;;7.96;83.49;101142.89;1667190;84;28168;-59
2021/12/12 01:23:18;;;;;;;22.25;10.80;;;;;;;7.96;83.83;101142.89;1651381;85;25961;-59
2021/12/12 01:25:48;;;;;;;17.05;9.88;;;;;;;7.92;83.44;101137.40;1631739;86;25552;-59
2021/12/12 01:28:21;;;;;;;16.52;9.25;;;;;;;7.94;83.44;101134.98;1666858;84;25959;-60
2021/12/12 01:30:50;;;;;;;16.55;9.33;;;;;;;7.96;83.52;101136.20;1623551;86;25697;-60
2021/12/12 01:33:31;;;;;;;15.98;9.05;;;;;;;7.99;83.50;101138.66;1651524;85;28610;-59
2021/12/12 01:35:46;;;;;;;15.70;9.38;;;;;;;8.00;83.52;101147.08;1628315;87;25856;-60
2021/12/12 01:41:00;;;;;;;18.55;9.30;;;;;;;7.97;83.28;101142.80;1654106;85;25818;-59
2021/12/12 01:43:32;;;;;;;16.05;9.65;;;;;;;7.97;83.37;101140.59;1651163;85;25818;-59
2021/12/12 01:46:04;;;;;;;14.15;8.75;;;;;;;7.95;83.36;101138.50;1658110;84;29663;-60
2021/12/12 01:48:51;;;;;;;18.10;9.13;;;;;;;7.94;83.30;101138.99;1655392;84;25993;-59
2021/12/12 01:51:21;;;;;;;14.20;9.00;;;;;;;7.94;83.45;101134.10;1640098;86;25785;-60
2021/12/12 01:53:52;;;;;;;16.85;9.50;;;;;;;7.95;83.44;101124.64;1648167;86;26439;-60
2021/12/12 01:56:30;;;;;;;14.50;8.48;;;;;;;7.97;83.45;101123.17;1628276;87;25797;-60
2021/12/12 01:59:02;;;;;;;20.50;9.15;;;;;;;7.96;83.55;101131.71;1628660;87;27518;-60
2021/12/12 02:01:40;;;;;;;12.43;8.08;;;;;;;7.97;83.49;101125.86;1637686;85;25689;-60
2021/12/12 02:04:12;;;;;;;14.95;8.90;;;;;;;7.98;83.43;101121.72;1635475;85;25791;-59
2021/12/12 02:06:45;;;;;;;16.95;7.70;;;;;;;7.97;83.64;101118.69;1657042;85;25867;-59
2021/12/12 02:09:14;;;;;;;17.75;8.98;;;;;;;7.97;83.62;101124.05;1660412;84;25919;-59
2021/12/12 02:11:43;;;;;;;13.62;7.97;;;;;;;8.00;83.58;101112.25;1665980;84;27583;-60
2021/12/12 02:14:15;;;;;;;13.40;8.98;;;;;;;8.00;83.58;101105.55;1654456;84;26429;-60
2021/12/12 02:16:47;;;;;;;12.70;8.15;;;;;;;8.01;83.61;101101.03;1628879;86;25815;-60
2021/12/12 02:19:18;;;;;;;18.05;7.87;;;;;;;8.02;83.44;101098.27;1640060;85;25821;-60
2021/12/12 02:22:03;;;;;;;12.35;7.90;;;;;;;8.01;83.39;101095.67;1630883;86;25762;-59
2021/12/12 02:37:59;;;;;;;15.88;7.17;;;;;;;8.04;83.72;101078.89;1663206;84;27496;-59
2021/12/12 02:40:34;;;;;;;10.10;6.12;;;;;;;8.07;83.88;101085.38;1636561;85;25905;-59
2021/12/12 02:43:04;;;;;;;15.60;7.37;;;;;;;8.10;84.04;101078.47;1630192;85;25797;-58
2021/12/12 02:45:33;;;;;;;11.78;5.90;;;;;;;8.13;84.01;101083.58;1634225;86;26459;-59
2021/12/12 02:48:04;;;;;;;11.57;6.87;;;;;;;8.18;84.28;101090.44;1642538;85;25514;-59
2021/12/12 02:50:37;;;;;;;16.30;6.78;;;;;;;8.14;83.82;101073.73;1637101;85;27508;-59
2021/12/12 02:53:15;;;;;;;14.63;7.03;;;;;;;8.16;84.23;101081.15;1613985;87;25930;-59
2021/12/12 02:55:47;;;;;;;17.45;6.35;;;;;;;8.14;83.92;101083.95;1656770;85;26608;-58
2021/12/12 02:58:16;;;;;;;10.82;6.28;;;;;;;8.12;84.05;101081.86;1669153;84;25825;-58
2021/12/12 03:00:48;;;;;;;18.15;5.80;;;;;;;8.12;84.14;101072.48;1691517;84;25969;-59
2021/12/12 03:03:17;;;;;;;14.87;6.55;;;;;;;8.14;84.41;101071.89;1658441;84;28136;-59
2021/12/12 03:05:47;;;;;;;12.78;6.33;;;;;;;8.15;84.09;101070.09;1660263;86;25687;-59
2021/12/12 03:08:15;;;;;;;14.10;6.72;;;;;;;8.15;83.87;101082.14;1657671;86;26610;-59
2021/12/12 03:10:47;;;;;;;13.25;6.90;;;;;;;8.20;84.09;101079.12;1658740;86;26410;-58
2021/12/12 03:13:14;;;;;;;15.03;7.10;;;;;;;8.23;84.16;101077.54;1671507;84;25716;-59
2021/12/12 03:15:43;;;;;;;14.18;6.53;;;;;;;8.24;84.05;101077.91;1663364;85;27081;-59
2021/12/12 03:18:15;;;;;;;9.70;6.22;;;;;;;8.21;83.86;101074.98;1661087;84;25537;-59
2021/12/12 03:20:48;;;;;;;15.58;6.35;;;;;;;8.29;84.47;101074.42;1639391;86;25943;-58
2021/12/12 03:23:23;;;;;;;15.27;7.47;;;;;;;8.35;84.36;101069.06;1664773;85;26439;-59
2021/12/12 03:25:59;;;;;;;15.20;6.95;;;;;;;8.36;84.15;101064.08;1659418;83;25961;-59
2021/12/12 03:28:29;;;;;;;17.27;6.80;;;;;;;8.27;84.09;101065.64;1677059;84;28666;-59
2021/12/12 03:31:01;;;;;;;15.72;7.00;;;;;;;8.24;84.48;101072.55;1669183;84;25927;-58
2021/12/12 03:33:31;;;;;;;20.75;7.35;;;;;;;8.19;84.31;101074.73;1618145;87;25822;-59
2021/12/12 03:36:02;;;;;;;13.72;6.72;;;;;;;8.18;85.30;101066.31;1660603;85;26481;-59
2021/12/12 03:38:32;;;;;;;11.85;6.30;;;;;;;8.12;85.19;101071.64;1672416;84;25477;-59
2021/12/12 03:41:03;;;;;;;11.08;5.70;;;;;;;8.09;85.34;101065.16;1642895;85;27480;-59
2021/12/12 03:43:31;;;;;;;11.60;5.22;;;;;;;8.10;85.77;101065.06;1672010;84;25786;-58
2021/12/12 03:45:58;;;;;;;11.88;4.87;;;;;;;8.12;85.72;101062.27;1645115;85;25819;-58
2021/12/12 03:48:31;;;;;;;10.50;5.35;;;;;;;8.14;86.03;101061.17;1675351;84;26394;-58
2021/12/12 03:51:01;;;;;;;;;;;;;;;8.17;86.11;101051.20;1669030;84;25874;-60
2021/12/12 03:53:30;;;;;;;9.85;4.20;;;;;;;8.17;85.84;101058.74;1663813;85;28244;-60
2021/12/12 03:55:58;;;;;;;9.65;4.22;;;;;;;8.20;85.99;101058.53;1679298;84;25855;-60
2021/12/12 03:58:25;;;;;;;10.55;4.12;;;;;;;8.20;85.99;101058.53;1663689;84;26337;-60
2021/12/12 04:01:06;;;;;;;15.60;4.92;;;;;;;8.21;86.49;101063.39;1666637;84;25841;-60
2021/12/12 04:03:34;;;;;;;13.55;5.37;;;;;;;8.21;86.53;101073.64;1651173;84;28589;-60
2021/12/12 04:06:07;;;;;;;14.10;4.55;;;;;;;8.24;86.57;101084.61;1643720;86;45685;-60
2021/12/12 04:08:39;;;;;;;11.93;4.17;;;;;;;8.32;86.72;101090.26;1644473;86;25788;-60
2021/12/12 04:11:14;;;;;;;15.43;4.65;;;;;;;8.40;86.77;101093.22;1642030;86;25799;-60
2021/12/12 04:13:45;;;;;;;13.32;3.50;;;;;;;8.44;86.41;101082.66;1645681;85;25970;-60
2021/12/12 04:16:12;;;;;;;13.13;3.77;;;;;;;8.45;86.28;101083.03;1620037;87;25477;-59
2021/12/12 04:18:40;;;;;;;13.70;3.98;;;;;;;8.44;86.20;101078.64;1612729;87;27491;-60
2021/12/12 04:21:07;;;;;;;17.35;5.17;;;;;;;8.46;86.66;101077.17;1627694;87;25871;-59
2021/12/12 04:23:35;;;;;;;10.95;3.25;;;;;;;8.42;86.16;101079.73;1634333;87;25844;-60
2021/12/12 04:26:17;;;;;;;13.48;3.50;;;;;;;8.42;86.69;101079.23;1643121;85;26228;-60
2021/12/12 04:28:45;;;;;;;12.98;3.45;;;;;;;8.42;86.71;101076.55;1636098;87;25792;-59
2021/12/12 04:31:11;;;;;;;12.65;2.85;;;;;;;8.40;86.67;101070.94;1680793;84;27856;-59
2021/12/12 04:33:38;;;;;;;14.70;3.75;;;;;;;8.42;86.52;101075.20;1649653;85;25805;-60
2021/12/12 04:36:06;;;;;;;8.30;2.85;;;;;;;8.46;86.67;101081.19;1652586;85;25872;-60
2021/12/12 04:38:33;;;;;;;14.28;3.35;;;;;;;8.48;86.77;101079.29;1634794;84;25980;-60
2021/12/12 04:41:00;;;;;;;11.97;4.17;;;;;;;8.51;86.72;101074.17;1635889;86;25741;-60
2021/12/12 04:43:27;;;;;;;10.05;2.77;;;;;;;8.53;86.57;101073.08;1650739;85;27505;-60
2021/12/12 04:46:07;;;;;;;11.43;3.75;;;;;;;8.56;86.57;101073.36;1641478;85;26275;-60
2021/12/12 04:51:48;;;;;;;14.40;2.87;;;;;;;8.64;86.62;101070.95;1640021;87;27912;-59
2021/12/12 04:54:47;;;;;;;10.30;2.98;;;;;;;8.69;86.25;101072.78;1630836;87;25765;-59
2021/12/12 04:57:20;;;;;;;16.00;4.78;;;;;;;8.70;86.07;101067.80;1608970;88;28204;-59
2021/12/12 05:00:01;;;;;;;22.05;4.72;;;;;;;8.74;86.12;101064.39;1653883;86;25867;-59
2021/12/12 05:02:51;;;;;;;15.83;4.72;;;;;;;8.75;86.11;101064.27;1649559;85;25848;-59
2021/12/12 05:05:35;;;;;;;10.30;3.17;;;;;;;8.76;85.91;101065.98;1653914;86;26436;-59
2021/12/12 05:08:10;;;;;;;9.05;3.42;;;;;;;8.75;85.93;101062.92;1657908;86;25860;-59
2021/12/12 05:10:45;;;;;;;20.10;4.20;;;;;;;8.74;86.31;101063.89;1659641;84;27561;-60
2021/12/12 05:13:24;;;;;;;15.53;4.05;;;;;;;8.74;86.05;101064.39;1647163;86;25752;-59
2021/12/12 05:15:57;;;;;;;12.45;3.70;;;;;;;8.74;86.07;101059.03;1656321;84;25832;-59
2021/12/12 05:18:31;;;;;;;10.28;3.22;;;;;;;8.79;86.26;101066.22;1657490;86;26623;-59
2021/12/12 05:21:09;;;;;;;11.05;2.58;;;;;;;8.77;86.00;101065.01;1655596;84;25896;-60
2021/12/12 05:23:41;;;;;;;15.58;4.33;;;;;;;8.81;86.27;101070.15;1655400;84;27517;-59
2021/12/12 05:26:19;;;;;;;10.53;3.25;;;;;;;8.83;86.16;101072.23;1647195;85;26365;-60
2021/12/12 05:29:00;;;;;;;16.10;3.35;;;;;;;8.84;86.35;101071.23;1659209;85;25979;-60
2021/12/12 05:31:30;;;;;;;21.77;4.58;;;;;;;8.80;85.94;101067.09;1656299;85;25976;-59
2021/12/12 05:33:58;;;;;;;9.23;2.75;;;;;;;8.82;86.09;101071.36;1664318;86;25466;-59
2021/12/12 05:36:28;;;;;;;12.18;2.87;;;;;;;8.83;86.18;101070.39;1648160;85;28262;-60
2021/12/12 05:39:00;;;;;;;11.85;2.12;;;;;;;8.86;86.16;101072.85;1649411;86;25914;-59
2021/12/12 05:41:28;;;;;;;11.05;2.22;;;;;;;8.87;86.00;101066.98;1652701;85;25816;-59
2021/12/12 05:43:56;;;;;;;8.60;1.87;;;;;;;8.89;86.11;101057.84;1655833;86;25820;-59
2021/12/12 05:46:26;;;;;;;9.53;2.10;;;;;;;8.91;86.21;101069.81;1680018;84;25539;-59
2021/12/12 05:48:53;;;;;;;10.38;2.50;;;;;;;8.88;86.08;101062.00;1665734;84;27475;-59
2021/12/12 05:51:22;;;;;;;15.08;2.45;;;;;;;8.90;86.28;101064.92;1650153;85;25772;-60
2021/12/12 05:53:52;;;;;;;10.88;3.27;;;;;;;8.91;86.25;101065.80;1659253;85;25895;-59
2021/12/12 05:56:26;;;;;;;10.13;2.67;;;;;;;8.92;86.18;101068.34;1663676;85;25763;-60
2021/12/12 05:58:53;;;;;;;;;;;;;;;8.90;86.37;101070.28;1665016;84;27261;-59
2021/12/12 06:01:21;;;;;;;26.68;7.47;;;;;;;8.85;86.35;101072.95;1662401;84;26927;-59
2021/12/12 06:03:49;;;;;;;15.28;5.37;;;;;;;8.84;86.52;101072.58;1648884;84;25753;-59
2021/12/12 06:06:21;;;;;;;11.45;3.37;;;;;;;8.86;87.03;101078.22;1636411;86;25992;-60
2021/12/12 06:08:49;;;;;;;14.05;2.37;;;;;;;8.82;86.98;101080.75;1648835;85;26452;-59
2021/12/12 06:11:23;;;;;;;9.10;2.52;;;;;;;8.82;86.93;101083.44;1641183;86;25939;-59
2021/12/12 06:13:51;;;;;;;18.23;2.90;;;;;;;8.82;86.76;101086.12;1647916;85;27552;-59
2021/12/12 06:16:21;;;;;;;8.83;2.58;;;;;;;8.85;86.71;101089.05;1649038;85;25940;-60
2021/12/12 06:18:55;;;;;;;8.90;2.83;;;;;;;8.86;86.66;101082.24;1641879;86;25782;-59
2021/12/12 06:21:22;;;;;;;11.53;2.47;;;;;;;8.89;86.73;101085.17;1664954;84;27425;-59
2021/12/12 06:23:50;;;;;;;11.63;3.17;;;;;;;8.91;86.87;101082.73;1648217;85;25818;-58
2021/12/12 06:26:20;;;;;;;10.25;3.33;;;;;;;8.91;86.66;101089.94;1655536;84;27467;-59
2021/12/12 06:28:49;;;;;;;11.78;2.80;;;;;;;8.96;86.93;101086.41;1648017;84;25857;-59
2021/12/12 06:31:16;;;;;;;12.53;3.55;;;;;;;9.01;86.52;101096.28;1660452;84;25838;-59
2021/12/12 06:33:44;;;;;;;14.35;3.47;;;;;;;9.05;86.68;101092.41;1643480;84;25818;-58
2021/12/12 06:36:13;;;;;;;11.30;2.80;;;;;;;9.08;86.65;101108.75;1643600;85;25838;-58
2021/12/12 06:38:45;;;;;;;12.85;3.52;;;;;;;9.10;86.43;101139.02;1643695;85;27465;-59
2021/12/12 06:41:12;;;;;;;16.65;4.58;;;;;;;9.14;86.30;101163.79;1648643;85;25851;-59
2021/12/12 06:43:41;;;;;;;13.98;4.53;;;;;;;9.15;86.17;101171.72;1643841;85;25833;-59
2021/12/12 06:46:09;;;;;;;14.03;4.47;;;;;;;9.16;86.16;101164.03;1648152;85;25793;-59
2021/12/12 06:48:39;;;;;;;14.63;4.05;;;;;;;9.20;86.38;101159.28;1644198;86;25798;-59
2021/12/12 06:51:07;;;;;;;14.33;3.58;;;;;;;9.22;86.46;101154.66;1657066;84;27435;-59
2021/12/12 06:53:38;;;;;;;9.38;2.62;;;;;;;9.26;86.57;101153.47;1653307;85;25546;-59
2021/12/12 06:56:08;;;;;;;18.85;3.65;;;;;;;9.29;86.29;101147.00;1666041;84;25812;-59
2021/12/12 06:58:36;;;;;;;14.00;3.75;;;;;;;9.30;86.20;101142.00;1653975;84;25793;-59
2021/12/12 07:01:11;;;;;;;13.48;3.10;;;;;;;9.29;86.15;101137.60;1660164;84;25844;-59
2021/12/12 07:03:40;;;;;;;14.63;3.45;;;;;;;9.28;86.29;101130.02;1655519;84;27504;-60
2021/12/12 07:06:08;;;;;;;16.25;3.95;;;;;;;9.29;86.41;101125.52;1663958;85;25797;-60
2021/12/12 07:08:36;;;;;;;13.62;4.10;;;;;;;9.33;86.51;101118.92;1662263;85;25790;-60
2021/12/12 07:11:05;;;;;;;12.37;4.50;;;;;;;9.35;86.41;101118.32;1659422;85;25772;-60
2021/12/12 07:13:33;;;;;;;16.87;4.95;;;;;;;9.34;86.26;101116.14;1664310;84;25883;-59
2021/12/12 07:16:04;;;;;;;17.30;4.55;;;;;;;9.33;86.14;101113.55;1681944;84;28074;-60
2021/12/12 07:18:34;;;;;;;12.23;4.58;;;;;;;9.30;86.27;101114.66;1654076;84;25713;-60
2021/12/12 07:21:06;;;;;;;14.18;4.83;;;;;;;9.31;86.22;101102.94;1635101;86;25815;-60
2021/12/12 07:23:35;;;;;;;14.23;4.55;;;;;;;9.32;85.99;101118.58;1631543;83;25822;-60
2021/12/12 07:26:05;;;;;;;15.38;4.40;;;;;;;9.28;85.87;101117.09;1626705;86;27088;-60
2021/12/12 07:28:34;;;;;;;15.05;5.05;;;;;;;9.28;85.94;101129.17;1659202;85;27505;-60
2021/12/12 07:31:05;;;;;;;9.68;4.00;;;;;;;9.27;85.82;101126.13;1647163;85;25768;-60
2021/12/12 07:33:34;;;;;;;13.18;4.92;;;;;;;9.27;85.73;101124.31;1654921;83;26489;-60
2021/12/12 07:36:05;;;;;;;11.20;4.97;;;;;;;9.25;85.43;101122.22;1656560;84;26445;-60
2021/12/12 07:38:34;;;;;;;9.75;5.28;;;;;;;9.16;85.21;101110.35;1645835;85;25527;-60
2021/12/12 07:41:04;;;;;;;21.70;8.03;;;;;;;9.11;85.24;101121.07;1644816;87;28165;-60
2021/12/12 07:43:33;;;;;;;14.60;6.28;;;;;;;9.11;84.90;101120.60;1668542;84;25800;-60
2021/12/12 07:46:03;;;;;;;8.53;5.50;;;;;;;9.08;84.47;101113.65;1655583;83;25719;-59
2021/12/12 07:48:31;;;;;;;11.83;6.22;;;;;;;9.03;84.06;101106.42;1674812;84;25785;-60
2021/12/12 07:50:59;;;;;;;11.70;5.75;;;;;;;8.95;83.81;101108.00;1689074;84;26098;-60
2021/12/12 07:53:28;;;;;;;9.28;5.42;;;;;;;8.91;83.71;101096.65;1671251;84;27476;-59
2021/12/12 07:55:56;;;;;;;12.65;6.65;;;;;;;8.89;83.39;101094.56;1679650;84;25912;-60
2021/12/12 07:58:28;;;;;;;12.47;6.47;;;;;;;8.86;83.31;101094.78;1687851;84;25777;-60
2021/12/12 08:00:59;;;;;;;15.93;7.25;;;;;;;8.83;83.18;101102.59;1681423;84;25856;-59
2021/12/12 08:03:30;;;;;;;9.60;5.85;;;;;;;8.85;83.43;101107.36;1660848;84;25464;-59
2021/12/12 08:06:00;;;;;;;14.60;6.83;;;;;;;8.85;83.73;101110.04;1660137;86;27504;-59
2021/12/12 08:08:29;;;;;;;12.37;6.70;;;;;;;8.83;83.81;101124.05;1659260;86;25747;-59
2021/12/12 08:10:58;;;;;;;15.13;6.28;;;;;;;8.80;84.22;101124.27;1663593;84;25502;-60
2021/12/12 08:13:26;;;;;;;13.65;6.85;;;;;;;8.80;84.36;101135.50;1638423;86;25931;-60
2021/12/12 08:15:54;;;;;;;12.53;6.70;;;;;;;8.83;84.53;101132.09;1675088;84;25926;-59
2021/12/12 08:18:22;;;;;;;11.33;6.62;;;;;;;8.84;84.54;101125.77;1662700;84;27120;-59
2021/12/12 08:20:51;;;;;;;17.92;7.05;;;;;;;8.87;84.47;101125.55;1657918;84;25751;-59
2021/12/12 08:23:19;;;;;;;11.85;7.30;;;;;;;8.86;84.25;101133.22;1662406;85;25790;-59
2021/12/12 08:25:49;;;;;;;16.60;8.48;;;;;;;8.88;84.47;101129.91;1628265;85;25759;-59
2021/12/12 08:28:19;;;;;;;16.75;8.23;;;;;;;8.85;84.42;101131.50;1659706;85;25869;-59
2021/12/12 08:30:48;;;;;;;15.55;9.20;;;;;;;8.86;84.46;101131.00;1654002;86;27490;-59
2021/12/12 08:33:16;;;;;;;14.95;7.80;;;;;;;8.86;84.56;101139.05;1654770;84;25862;-60
2021/12/12 08:35:44;;;;;;;13.50;6.72;;;;;;;8.82;84.56;101130.88;1645593;85;25808;-60
2021/12/12 08:38:13;;;;;;;10.70;6.33;;;;;;;8.83;84.52;101133.44;1648412;85;25812;-60
2021/12/12 08:40:49;;;;;;;14.43;7.08;;;;;;;8.78;84.38;101135.63;1653897;85;26352;-60
2021/12/12 08:43:21;;;;;;;16.25;8.73;;;;;;;8.74;84.30;101136.81;1668191;85;27486;-59
2021/12/12 08:45:55;;;;;;;13.98;8.25;;;;;;;8.73;84.35;101135.09;1651693;85;26360;-59
2021/12/12 08:48:26;;;;;;;12.95;7.60;;;;;;;8.76;84.38;101137.06;1648718;85;27081;-60
2021/12/12 08:50:57;;;;;;;12.90;7.47;;;;;;;8.75;84.65;101130.48;1660488;86;25778;-59
2021/12/12 08:53:25;;;;;;;12.07;8.05;;;;;;;8.70;84.66;101134.85;1660164;86;25721;-60
2021/12/12 08:55:56;;;;;;;15.43;7.75;;;;;;;8.69;84.75;101136.31;1658663;85;27466;-59
2021/12/12 08:58:27;;;;;;;17.17;8.18;;;;;;;8.68;84.97;101133.26;1634338;87;25840;-60
2021/12/12 09:01:06;;;;;;;16.60;8.50;;;;;;;8.60;85.12;101129.80;1633447;86;25911;-59
2021/12/12 09:04:01;;;;;;;19.25;8.00;;;;;;;8.52;85.48;101118.30;1650901;85;25824;-59
2021/12/12 09:06:33;;;;;;;18.75;8.73;;;;;;;8.51;85.52;101122.44;1641937;84;27330;-59
2021/12/12 09:09:11;;;;;;;18.05;8.90;;;;;;;8.51;85.88;101108.56;1644226;85;28180;-60
2021/12/12 09:11:49;;;;;;;18.60;8.68;;;;;;;8.49;85.95;101107.81;1617749;85;25945;-59
2021/12/12 09:14:31;;;;;;;12.65;8.38;;;;;;;8.42;86.02;101103.36;1649635;85;25770;-60
2021/12/12 09:17:08;;;;;;;17.98;8.20;;;;;;;8.35;86.24;101102.11;1647563;85;25824;-60
2021/12/12 09:19:55;;;;;;;18.07;8.58;;;;;;;8.34;86.85;101099.05;1616597;86;25896;-59
2021/12/12 09:22:34;;;;;;;17.50;9.13;;;;;;;8.31;86.97;101093.91;1655678;85;27513;-59
2021/12/12 09:25:11;;;;;;;28.07;9.10;;;;;;;8.26;87.25;101094.74;1630410;86;25804;-60
2021/12/12 09:27:49;;;;;;;17.05;8.38;;;;;;;8.22;87.72;101079.84;1643698;85;26007;-60
2021/12/12 09:30:20;;;;;;;13.08;7.37;;;;;;;8.22;87.69;101081.19;1625059;86;26561;-60
2021/12/12 09:33:09;;;;;;;12.58;6.72;;;;;;;8.23;87.85;101082.44;1646607;85;25761;-60
2021/12/12 09:35:41;;;;;;;15.83;8.28;;;;;;;8.20;87.74;101083.98;1630478;86;27505;-59
2021/12/12 09:38:32;;;;;;;22.98;12.05;;;;;;;8.18;87.86;101093.95;1636237;83;25836;-59
2021/12/12 09:41:23;;;;;;;15.60;10.35;;;;;;;8.15;88.37;101085.66;1596417;86;25528;-60
2021/12/12 09:43:56;;;;;;;17.35;8.55;;;;;;;8.15;88.57;101077.63;1634867;85;26552;-60
2021/12/12 09:47:00;;;;;;;13.32;9.18;;;;;;;8.12;88.65;101078.34;1638955;84;25871;-59
2021/12/12 09:53:14;;;;;;;23.27;12.75;;;;;;;8.11;89.07;101081.98;1645599;84;25500;-59
2021/12/12 09:55:46;;;;;;;19.10;10.80;;;;;;;8.11;89.07;101074.78;1662554;84;25828;-59
2021/12/12 09:58:41;;;;;;;14.13;8.78;;;;;;;8.09;88.99;101071.86;1656427;83;25933;-59
2021/12/12 10:01:13;;;;;;;15.55;8.90;;;;;;;8.07;89.36;101073.31;1674775;84;25814;-59
2021/12/12 10:04:18;;;;;;;15.68;8.83;;;;;;;8.11;89.33;101067.24;1676095;84;27484;-59
2021/12/12 10:07:08;;;;;;;13.13;8.33;;;;;;;8.06;89.17;101066.24;1658284;84;25909;-60
2021/12/12 10:09:50;;;;;;;17.80;8.65;;;;;;;8.03;89.10;101065.61;1655962;84;25907;-59
2021/12/12 10:12:24;;;;;;;15.80;9.88;;;;;;;8.00;89.51;101061.34;1642054;86;25820;-59
2021/12/12 10:15:11;;;;;;;18.45;9.03;;;;;;;7.99;89.75;101052.93;1639163;86;27304;-59
2021/12/12 10:17:50;;;;;;;15.10;7.85;;;;;;;7.98;89.83;101054.73;1639059;84;27530;-59
2021/12/12 10:20:42;;;;;;;21.07;8.33;;;;;;;7.94;90.02;101049.72;1642727;85;25780;-59
2021/12/12 10:23:32;;;;;;;17.23;10.85;;;;;;;7.91;90.12;101048.62;1661335;84;25774;-59
2021/12/12 10:26:06;;;;;;;19.65;9.03;;;;;;;7.94;90.15;101044.36;1634480;86;26171;-59
2021/12/12 10:28:50;;;;;;;13.65;8.13;;;;;;;7.97;90.13;101041.00;1670165;84;25927;-59
2021/12/12 10:31:33;;;;;;;;;;;;;;;7.99;89.99;101043.05;1666439;84;27471;-59
2021/12/12 10:34:10;;;;;;;19.90;10.88;;;;;;;8.03;89.98;101038.33;1608281;86;25944;-60
2021/12/12 10:36:51;;;;;;;22.85;9.00;;;;;;;8.04;89.78;101032.50;1630466;86;25820;-60
2021/12/12 10:39:29;;;;;;;19.57;8.73;;;;;;;8.01;89.67;101037.61;1641640;85;25936;-58
2021/12/12 10:42:01;;;;;;;12.85;8.60;;;;;;;8.01;89.96;101028.70;1651258;84;26190;-59
2021/12/12 10:44:36;;;;;;;15.28;8.18;;;;;;;8.03;90.16;101024.93;1618875;87;28177;-59
2021/12/12 10:47:18;;;;;;;12.07;8.45;;;;;;;8.06;90.04;101028.73;1635814;85;25860;-58
2021/12/12 10:50:21;;;;;;;19.80;7.45;;;;;;;8.07;89.97;101020.23;1641328;85;25844;-59
2021/12/12 10:53:08;;;;;;;17.67;8.50;;;;;;;8.05;89.93;101023.50;1653155;85;26469;-60
2021/12/12 10:55:59;;;;;;;12.15;7.80;;;;;;;8.08;90.35;101019.23;1598236;87;25921;-60
2021/12/12 10:58:51;;;;;;;16.52;8.68;;;;;;;8.09;90.05;101027.17;1656291;84;27251;-60
2021/12/12 11:01:26;;;;;;;12.80;8.25;;;;;;;8.08;89.97;101025.46;1641235;85;25877;-60
2021/12/12 11:04:13;;;;;;;16.75;8.00;;;;;;;8.09;89.89;101027.17;1625749;86;25845;-59
2021/12/12 11:06:44;;;;;;;15.58;7.78;;;;;;;8.11;90.21;101013.66;1624161;86;25896;-60
2021/12/12 11:09:35;;;;;;;13.35;7.33;;;;;;;8.12;90.03;101021.56;1631686;85;26503;-59
2021/12/12 11:12:27;;;;;;;18.65;8.25;;;;;;;8.13;89.90;101009.04;1669169;84;27494;-59
2021/12/12 11:15:14;;;;;;;13.18;7.45;;;;;;;8.13;90.01;101013.91;1639714;84;25825;-59
2021/12/12 11:17:49;;;;;;;15.93;7.47;;;;;;;8.19;89.98;101010.41;1638988;87;25853;-59
2021/12/12 11:20:37;;;;;;;12.90;7.37;;;;;;;8.21;89.55;101008.45;1664762;84;27938;-60
2021/12/12 11:23:15;;;;;;;16.35;8.53;;;;;;;8.19;89.35;101015.77;1627541;84;26528;-59
2021/12/12 11:26:15;;;;;;;10.78;7.15;;;;;;;8.21;89.27;101013.81;1646786;85;27669;-59
2021/12/12 11:28:47;;;;;;;10.58;6.87;;;;;;;8.22;89.32;101005.67;1646778;85;25934;-59
2021/12/12 11:31:24;;;;;;;9.33;5.85;;;;;;;8.24;89.13;101002.41;1641050;85;25791;-59
2021/12/12 11:33:53;;;;;;;14.30;7.05;;;;;;;8.25;88.84;101003.24;1612103;87;25809;-59
2021/12/12 11:36:28;;;;;;;12.15;6.78;;;;;;;8.25;88.80;100995.20;1634712;85;25806;-59
2021/12/12 11:39:24;;;;;;;10.98;6.83;;;;;;;8.25;88.84;100996.05;1614661;88;28607;-59
2021/12/12 11:41:59;;;;;;;15.20;7.67;;;;;;;8.26;88.58;100996.91;1634049;86;25861;-59
2021/12/12 11:44:37;;;;;;;14.30;8.20;;;;;;;8.25;88.62;100993.86;1661398;83;26417;-59
2021/12/12 11:47:36;;;;;;;11.83;7.22;;;;;;;8.25;88.64;101001.91;1655789;85;25847;-59
2021/12/12 11:50:07;;;;;;;12.13;6.62;;;;;;;8.29;88.70;101002.05;1567444;87;25833;-59
2021/12/12 11:53:00;;;;;;;16.23;7.47;;;;;;;8.26;88.33;100993.73;1634433;85;28209;-59
2021/12/12 11:55:35;;;;;;;11.50;5.55;;;;;;;8.21;88.34;100997.73;1673114;84;25918;-59
2021/12/12 11:58:26;;;;;;;9.03;5.95;;;;;;;8.23;88.36;100998.47;1649933;84;25827;-59
2021/12/12 12:00:59;;;;;;;10.65;5.40;;;;;;;8.24;88.19;100998.38;1612800;87;25814;-59
2021/12/12 12:03:37;;;;;;;11.28;5.65;;;;;;;8.23;87.76;100999.81;1645119;85;25994;-59
2021/12/12 12:06:42;;;;;;;10.58;6.17;;;;;;;8.20;87.80;101008.11;1635864;85;28207;-59
2021/12/12 12:09:29;;;;;;;8.53;5.67;;;;;;;8.16;87.87;100999.41;1642150;86;26394;-60
2021/12/12 12:12:10;;;;;;;10.18;5.15;;;;;;;8.20;87.88;100992.03;1647803;85;25835;-60
2021/12/12 12:15:05;;;;;;;10.50;5.58;;;;;;;8.19;87.49;101002.38;1656754;84;25802;-60
2021/12/12 12:17:43;;;;;;;10.32;5.85;;;;;;;8.13;87.37;100985.77;1660969;84;25725;-60
2021/12/12 12:20:49;;;;;;;8.40;5.35;;;;;;;8.12;87.63;100988.57;1663993;85;27496;-60